sensor_id;sensor_type;location;lat;lon;timestamp;temperature;humidity
56542;DHT22;42438;53.174;6.730;2022-08-21T00:02:37;16.10;99.90
56542;DHT22;42438;53.174;6.730;2022-08-21T00:05:08;16.20;99.90
56542;DHT22;42438;53.174;6.730;2022-08-21T00:07:38;16.50;99.90
56542;DHT22;42438;53.174;6.730;2022-08-21T00:10:10;16.10;99.90
56542;DHT22;42438;53.174;6.730;2022-08-21T00:12:41;16.00;99.90
56542;DHT22;42438;53.174;6.730;2022-08-21T00:15:16;15.90;99.90
56542;DHT22;42438;53.174;6.730;2022-08-21T00:17:48;15.80;99.90
56542;DHT22;42438;53.174;6.730;2022-08-21T00:20:19;15.80;99.90
56542;DHT22;42438;53.174;6.730;2022-08-21T00:22:51;15.80;99.90
56542;DHT22;42438;53.174;6.730;2022-08-21T00:25:22;15.70;99.90
56542;DHT22;42438;53.174;6.730;2022-08-21T00:27:53;15.70;99.90
56542;DHT22;42438;53.174;6.730;2022-08-21T00:30:26;15.70;99.90
56542;DHT22;42438;53.174;6.730;2022-08-21T00:32:57;15.60;99.90
56542;DHT22;42438;53.174;6.730;2022-08-21T00:35:32;16.00;99.90
56542;DHT22;42438;53.174;6.730;2022-08-21T00:38:05;15.50;99.90
56542;DHT22;42438;53.174;6.730;2022-08-21T00:40:44;15.50;99.90
56542;DHT22;42438;53.174;6.730;2022-08-21T00:43:20;15.40;99.90
56542;DHT22;42438;53.174;6.730;2022-08-21T00:45:51;15.50;99.90
56542;DHT22;42438;53.174;6.730;2022-08-21T00:48:24;15.50;99.90
56542;DHT22;42438;53.174;6.730;2022-08-21T00:51:05;15.30;99.90
56542;DHT22;42438;53.174;6.730;2022-08-21T00:53:39;15.30;99.90
56542;DHT22;42438;53.174;6.730;2022-08-21T00:56:12;15.20;99.90
56542;DHT22;42438;53.174;6.730;2022-08-21T00:58:43;15.20;99.90
56542;DHT22;42438;53.174;6.730;2022-08-21T01:01:14;15.20;99.90
56542;DHT22;42438;53.174;6.730;2022-08-21T01:03:46;15.30;99.90
56542;DHT22;42438;53.174;6.730;2022-08-21T01:06:17;15.10;99.90
56542;DHT22;42438;53.174;6.730;2022-08-21T01:08:48;15.10;99.90
56542;DHT22;42438;53.174;6.730;2022-08-21T01:11:18;15.10;99.90
56542;DHT22;42438;53.174;6.730;2022-08-21T01:13:50;15.00;99.90
56542;DHT22;42438;53.174;6.730;2022-08-21T01:16:22;15.00;99.90
56542;DHT22;42438;53.174;6.730;2022-08-21T01:18:53;15.00;99.90
56542;DHT22;42438;53.174;6.730;2022-08-21T01:21:26;15.00;99.90
56542;DHT22;42438;53.174;6.730;2022-08-21T01:23:57;15.20;99.90
56542;DHT22;42438;53.174;6.730;2022-08-21T01:29:26;14.80;99.90
56542;DHT22;42438;53.174;6.730;2022-08-21T01:31:59;15.00;99.90
56542;DHT22;42438;53.174;6.730;2022-08-21T01:34:36;14.90;99.90
56542;DHT22;42438;53.174;6.730;2022-08-21T01:37:07;14.90;99.90
56542;DHT22;42438;53.174;6.730;2022-08-21T01:39:38;14.90;99.90
56542;DHT22;42438;53.174;6.730;2022-08-21T01:42:09;14.90;99.90
56542;DHT22;42438;53.174;6.730;2022-08-21T01:44:41;14.90;99.90
56542;DHT22;42438;53.174;6.730;2022-08-21T01:47:14;14.90;99.90
56542;DHT22;42438;53.174;6.730;2022-08-21T01:49:45;14.90;99.90
56542;DHT22;42438;53.174;6.730;2022-08-21T01:52:15;15.00;99.90
56542;DHT22;42438;53.174;6.730;2022-08-21T01:54:46;15.00;99.90
56542;DHT22;42438;53.174;6.730;2022-08-21T01:57:17;15.00;99.90
56542;DHT22;42438;53.174;6.730;2022-08-21T01:59:47;15.10;99.90
56542;DHT22;42438;53.174;6.730;2022-08-21T02:02:18;15.10;99.90
56542;DHT22;42438;53.174;6.730;2022-08-21T02:04:49;15.10;99.90
56542;DHT22;42438;53.174;6.730;2022-08-21T02:07:19;15.10;99.90
56542;DHT22;42438;53.174;6.730;2022-08-21T02:09:50;15.20;99.90
56542;DHT22;42438;53.174;6.730;2022-08-21T02:12:21;15.20;99.90
56542;DHT22;42438;53.174;6.730;2022-08-21T02:14:51;15.20;99.90
56542;DHT22;42438;53.174;6.730;2022-08-21T02:17:22;15.20;99.90
56542;DHT22;42438;53.174;6.730;2022-08-21T02:19:52;15.20;99.90
56542;DHT22;42438;53.174;6.730;2022-08-21T02:22:23;15.30;99.90
56542;DHT22;42438;53.174;6.730;2022-08-21T02:24:54;15.30;99.90
56542;DHT22;42438;53.174;6.730;2022-08-21T02:27:25;15.30;99.90
56542;DHT22;42438;53.174;6.730;2022-08-21T02:29:56;15.30;99.90
56542;DHT22;42438;53.174;6.730;2022-08-21T02:32:27;15.30;99.90
56542;DHT22;42438;53.174;6.730;2022-08-21T02:34:58;15.20;99.90
56542;DHT22;42438;53.174;6.730;2022-08-21T02:37:28;15.30;99.90
56542;DHT22;42438;53.174;6.730;2022-08-21T02:40:00;15.20;99.90
56542;DHT22;42438;53.174;6.730;2022-08-21T02:42:31;15.20;99.90
56542;DHT22;42438;53.174;6.730;2022-08-21T02:45:02;15.20;99.90
56542;DHT22;42438;53.174;6.730;2022-08-21T02:47:33;15.20;99.90
56542;DHT22;42438;53.174;6.730;2022-08-21T02:50:05;15.20;99.90
56542;DHT22;42438;53.174;6.730;2022-08-21T02:52:36;15.20;99.90
56542;DHT22;42438;53.174;6.730;2022-08-21T02:55:07;15.10;99.90
56542;DHT22;42438;53.174;6.730;2022-08-21T02:57:37;15.10;99.90
56542;DHT22;42438;53.174;6.730;2022-08-21T03:00:09;15.10;99.90
56542;DHT22;42438;53.174;6.730;2022-08-21T03:02:42;15.00;99.90
56542;DHT22;42438;53.174;6.730;2022-08-21T03:05:13;15.00;99.90
56542;DHT22;42438;53.174;6.730;2022-08-21T03:07:48;15.00;99.90
56542;DHT22;42438;53.174;6.730;2022-08-21T03:10:20;14.90;99.90
56542;DHT22;42438;53.174;6.730;2022-08-21T03:12:51;14.80;99.90
56542;DHT22;42438;53.174;6.730;2022-08-21T03:15:23;14.80;99.90
56542;DHT22;42438;53.174;6.730;2022-08-21T03:17:54;14.70;99.90
56542;DHT22;42438;53.174;6.730;2022-08-21T03:20:27;14.70;99.90
56542;DHT22;42438;53.174;6.730;2022-08-21T03:22:59;14.70;99.90
56542;DHT22;42438;53.174;6.730;2022-08-21T03:25:31;14.60;99.90
56542;DHT22;42438;53.174;6.730;2022-08-21T03:28:08;14.60;99.90
56542;DHT22;42438;53.174;6.730;2022-08-21T03:30:41;14.60;99.90
56542;DHT22;42438;53.174;6.730;2022-08-21T03:33:13;14.60;99.90
56542;DHT22;42438;53.174;6.730;2022-08-21T03:35:45;14.50;99.90
56542;DHT22;42438;53.174;6.730;2022-08-21T03:38:16;14.50;99.90
56542;DHT22;42438;53.174;6.730;2022-08-21T03:40:47;14.50;99.90
56542;DHT22;42438;53.174;6.730;2022-08-21T03:43:17;14.50;99.90
56542;DHT22;42438;53.174;6.730;2022-08-21T03:45:48;14.50;99.90
56542;DHT22;42438;53.174;6.730;2022-08-21T03:48:19;14.50;99.90
56542;DHT22;42438;53.174;6.730;2022-08-21T03:50:52;14.40;99.90
56542;DHT22;42438;53.174;6.730;2022-08-21T03:53:23;14.40;99.90
56542;DHT22;42438;53.174;6.730;2022-08-21T03:55:54;14.40;99.90
56542;DHT22;42438;53.174;6.730;2022-08-21T03:58:26;14.40;99.90
56542;DHT22;42438;53.174;6.730;2022-08-21T04:00:59;14.40;99.90
56542;DHT22;42438;53.174;6.730;2022-08-21T04:03:30;14.30;99.90
56542;DHT22;42438;53.174;6.730;2022-08-21T04:06:00;14.30;99.90
56542;DHT22;42438;53.174;6.730;2022-08-21T04:08:31;14.30;99.90
56542;DHT22;42438;53.174;6.730;2022-08-21T04:11:02;14.30;99.90
56542;DHT22;42438;53.174;6.730;2022-08-21T04:13:32;14.30;99.90
56542;DHT22;42438;53.174;6.730;2022-08-21T04:16:04;14.30;99.90
56542;DHT22;42438;53.174;6.730;2022-08-21T04:18:35;14.30;99.90
56542;DHT22;42438;53.174;6.730;2022-08-21T04:21:07;14.30;99.90
56542;DHT22;42438;53.174;6.730;2022-08-21T04:23:40;14.30;99.90
56542;DHT22;42438;53.174;6.730;2022-08-21T04:26:11;14.20;99.90
56542;DHT22;42438;53.174;6.730;2022-08-21T04:28:42;14.20;99.90
56542;DHT22;42438;53.174;6.730;2022-08-21T04:31:12;14.20;99.90
56542;DHT22;42438;53.174;6.730;2022-08-21T04:33:43;14.20;99.90
56542;DHT22;42438;53.174;6.730;2022-08-21T04:36:15;14.20;99.90
56542;DHT22;42438;53.174;6.730;2022-08-21T04:38:45;14.20;99.90
56542;DHT22;42438;53.174;6.730;2022-08-21T04:41:17;14.20;99.90
56542;DHT22;42438;53.174;6.730;2022-08-21T04:43:47;14.20;99.90
56542;DHT22;42438;53.174;6.730;2022-08-21T04:46:18;14.30;99.90
56542;DHT22;42438;53.174;6.730;2022-08-21T04:48:49;14.40;99.90
56542;DHT22;42438;53.174;6.730;2022-08-21T04:51:25;14.20;99.90
56542;DHT22;42438;53.174;6.730;2022-08-21T04:54:10;14.40;99.90
56542;DHT22;42438;53.174;6.730;2022-08-21T04:57:05;14.20;99.90
56542;DHT22;42438;53.174;6.730;2022-08-21T04:59:43;14.20;99.90
56542;DHT22;42438;53.174;6.730;2022-08-21T05:02:15;14.30;99.90
56542;DHT22;42438;53.174;6.730;2022-08-21T05:04:49;14.30;99.90
56542;DHT22;42438;53.174;6.730;2022-08-21T05:07:24;14.30;99.90
56542;DHT22;42438;53.174;6.730;2022-08-21T05:09:56;14.30;99.90
56542;DHT22;42438;53.174;6.730;2022-08-21T05:12:26;14.40;99.90
56542;DHT22;42438;53.174;6.730;2022-08-21T05:14:57;14.40;99.90
56542;DHT22;42438;53.174;6.730;2022-08-21T05:17:28;14.50;99.90
56542;DHT22;42438;53.174;6.730;2022-08-21T05:19:59;14.40;99.90
56542;DHT22;42438;53.174;6.730;2022-08-21T05:22:30;14.50;99.90
56542;DHT22;42438;53.174;6.730;2022-08-21T05:25:00;14.50;99.90
56542;DHT22;42438;53.174;6.730;2022-08-21T05:27:31;14.60;99.90
56542;DHT22;42438;53.174;6.730;2022-08-21T05:30:03;14.70;99.90
56542;DHT22;42438;53.174;6.730;2022-08-21T05:32:34;14.70;99.90
56542;DHT22;42438;53.174;6.730;2022-08-21T05:35:06;14.70;99.90
56542;DHT22;42438;53.174;6.730;2022-08-21T05:37:37;14.80;99.90
56542;DHT22;42438;53.174;6.730;2022-08-21T05:40:09;14.90;99.90
56542;DHT22;42438;53.174;6.730;2022-08-21T05:42:40;14.90;99.90
56542;DHT22;42438;53.174;6.730;2022-08-21T05:45:11;15.00;99.90
56542;DHT22;42438;53.174;6.730;2022-08-21T05:47:42;14.60;99.90
56542;DHT22;42438;53.174;6.730;2022-08-21T05:50:12;15.10;99.90
56542;DHT22;42438;53.174;6.730;2022-08-21T05:52:43;15.10;99.90
56542;DHT22;42438;53.174;6.730;2022-08-21T05:55:14;15.30;99.90
56542;DHT22;42438;53.174;6.730;2022-08-21T05:57:45;15.30;99.90
56542;DHT22;42438;53.174;6.730;2022-08-21T06:00:15;15.50;99.90
56542;DHT22;42438;53.174;6.730;2022-08-21T06:02:46;15.50;99.90
56542;DHT22;42438;53.174;6.730;2022-08-21T06:05:17;15.60;99.90
56542;DHT22;42438;53.174;6.730;2022-08-21T06:07:48;15.70;99.90
56542;DHT22;42438;53.174;6.730;2022-08-21T06:10:19;15.80;99.90
56542;DHT22;42438;53.174;6.730;2022-08-21T06:12:53;15.90;99.90
56542;DHT22;42438;53.174;6.730;2022-08-21T06:15:24;16.00;99.90
56542;DHT22;42438;53.174;6.730;2022-08-21T06:17:55;16.10;99.90
56542;DHT22;42438;53.174;6.730;2022-08-21T06:20:27;16.10;99.90
56542;DHT22;42438;53.174;6.730;2022-08-21T06:22:58;16.20;99.90
56542;DHT22;42438;53.174;6.730;2022-08-21T06:25:29;16.20;99.90
56542;DHT22;42438;53.174;6.730;2022-08-21T06:28:02;16.30;99.90
56542;DHT22;42438;53.174;6.730;2022-08-21T06:30:34;16.30;99.90
56542;DHT22;42438;53.174;6.730;2022-08-21T06:33:05;16.40;99.90
56542;DHT22;42438;53.174;6.730;2022-08-21T06:35:37;16.50;99.90
56542;DHT22;42438;53.174;6.730;2022-08-21T06:38:08;16.60;99.90
56542;DHT22;42438;53.174;6.730;2022-08-21T06:40:39;16.60;99.90
56542;DHT22;42438;53.174;6.730;2022-08-21T06:43:12;16.70;99.90
56542;DHT22;42438;53.174;6.730;2022-08-21T06:45:44;16.80;99.90
56542;DHT22;42438;53.174;6.730;2022-08-21T06:48:15;16.80;99.90
56542;DHT22;42438;53.174;6.730;2022-08-21T06:50:46;16.90;99.90
56542;DHT22;42438;53.174;6.730;2022-08-21T06:53:19;17.00;99.90
56542;DHT22;42438;53.174;6.730;2022-08-21T06:55:50;17.00;99.90
56542;DHT22;42438;53.174;6.730;2022-08-21T06:58:21;17.10;99.90
56542;DHT22;42438;53.174;6.730;2022-08-21T07:00:52;17.10;99.90
56542;DHT22;42438;53.174;6.730;2022-08-21T07:03:33;17.20;99.90
56542;DHT22;42438;53.174;6.730;2022-08-21T07:06:06;17.30;99.90
56542;DHT22;42438;53.174;6.730;2022-08-21T07:08:37;17.40;99.90
56542;DHT22;42438;53.174;6.730;2022-08-21T07:11:13;17.50;99.90
56542;DHT22;42438;53.174;6.730;2022-08-21T07:13:45;17.60;99.90
56542;DHT22;42438;53.174;6.730;2022-08-21T07:16:15;17.70;99.90
56542;DHT22;42438;53.174;6.730;2022-08-21T07:18:46;17.80;99.90
56542;DHT22;42438;53.174;6.730;2022-08-21T07:21:17;17.90;99.90
56542;DHT22;42438;53.174;6.730;2022-08-21T07:23:49;17.90;99.90
56542;DHT22;42438;53.174;6.730;2022-08-21T07:26:22;18.00;99.90
56542;DHT22;42438;53.174;6.730;2022-08-21T07:28:53;18.10;99.90
56542;DHT22;42438;53.174;6.730;2022-08-21T07:31:24;18.40;99.90
56542;DHT22;42438;53.174;6.730;2022-08-21T07:33:55;18.30;99.90
56542;DHT22;42438;53.174;6.730;2022-08-21T07:36:26;18.40;99.90
56542;DHT22;42438;53.174;6.730;2022-08-21T07:38:57;18.50;99.90
56542;DHT22;42438;53.174;6.730;2022-08-21T07:41:28;18.50;99.90
56542;DHT22;42438;53.174;6.730;2022-08-21T07:43:59;18.70;99.90
56542;DHT22;42438;53.174;6.730;2022-08-21T07:46:30;18.70;99.90
56542;DHT22;42438;53.174;6.730;2022-08-21T07:49:01;18.70;99.90
56542;DHT22;42438;53.174;6.730;2022-08-21T07:51:32;19.00;99.90
56542;DHT22;42438;53.174;6.730;2022-08-21T07:54:03;19.10;99.90
56542;DHT22;42438;53.174;6.730;2022-08-21T07:56:34;19.00;99.90
56542;DHT22;42438;53.174;6.730;2022-08-21T07:59:05;19.20;99.90
56542;DHT22;42438;53.174;6.730;2022-08-21T08:01:35;19.50;99.90
56542;DHT22;42438;53.174;6.730;2022-08-21T08:04:06;19.90;99.90
56542;DHT22;42438;53.174;6.730;2022-08-21T08:06:36;19.50;99.90
56542;DHT22;42438;53.174;6.730;2022-08-21T08:09:07;19.60;99.90
56542;DHT22;42438;53.174;6.730;2022-08-21T08:11:39;19.80;99.90
56542;DHT22;42438;53.174;6.730;2022-08-21T08:14:11;19.70;99.90
56542;DHT22;42438;53.174;6.730;2022-08-21T08:16:42;19.80;99.90
56542;DHT22;42438;53.174;6.730;2022-08-21T08:19:12;19.90;99.90
56542;DHT22;42438;53.174;6.730;2022-08-21T08:21:43;20.00;99.90
56542;DHT22;42438;53.174;6.730;2022-08-21T08:24:13;20.20;99.90
56542;DHT22;42438;53.174;6.730;2022-08-21T08:26:45;20.30;99.90
56542;DHT22;42438;53.174;6.730;2022-08-21T08:29:15;20.40;99.90
56542;DHT22;42438;53.174;6.730;2022-08-21T08:31:46;20.50;99.90
56542;DHT22;42438;53.174;6.730;2022-08-21T08:34:17;20.60;99.90
56542;DHT22;42438;53.174;6.730;2022-08-21T08:36:48;20.70;99.90
56542;DHT22;42438;53.174;6.730;2022-08-21T08:39:19;20.80;99.90
56542;DHT22;42438;53.174;6.730;2022-08-21T08:42:01;20.90;99.90
56542;DHT22;42438;53.174;6.730;2022-08-21T08:44:34;21.00;99.90
56542;DHT22;42438;53.174;6.730;2022-08-21T08:47:05;21.10;99.90
56542;DHT22;42438;53.174;6.730;2022-08-21T08:52:46;21.30;99.90
56542;DHT22;42438;53.174;6.730;2022-08-21T08:55:32;21.50;99.90
56542;DHT22;42438;53.174;6.730;2022-08-21T08:58:03;21.60;99.90
56542;DHT22;42438;53.174;6.730;2022-08-21T09:00:34;21.80;99.90
56542;DHT22;42438;53.174;6.730;2022-08-21T09:03:05;21.80;99.90
56542;DHT22;42438;53.174;6.730;2022-08-21T09:05:50;21.80;99.90
56542;DHT22;42438;53.174;6.730;2022-08-21T09:11:45;22.00;99.90
56542;DHT22;42438;53.174;6.730;2022-08-21T09:14:24;22.20;99.90
56542;DHT22;42438;53.174;6.730;2022-08-21T09:17:09;22.20;99.90
56542;DHT22;42438;53.174;6.730;2022-08-21T09:20:03;22.30;99.90
56542;DHT22;42438;53.174;6.730;2022-08-21T09:25:32;22.60;99.90
56542;DHT22;42438;53.174;6.730;2022-08-21T09:28:08;22.60;99.90
56542;DHT22;42438;53.174;6.730;2022-08-21T09:30:41;22.70;99.90
56542;DHT22;42438;53.174;6.730;2022-08-21T09:33:13;22.90;99.90
56542;DHT22;42438;53.174;6.730;2022-08-21T09:35:55;22.90;99.90
56542;DHT22;42438;53.174;6.730;2022-08-21T09:38:34;22.90;99.90
56542;DHT22;42438;53.174;6.730;2022-08-21T09:41:09;22.90;99.90
56542;DHT22;42438;53.174;6.730;2022-08-21T09:43:40;23.00;99.90
56542;DHT22;42438;53.174;6.730;2022-08-21T09:46:24;23.10;99.90
56542;DHT22;42438;53.174;6.730;2022-08-21T09:48:58;23.10;99.90
56542;DHT22;42438;53.174;6.730;2022-08-21T09:51:34;23.30;99.90
56542;DHT22;42438;53.174;6.730;2022-08-21T09:56:52;23.40;99.90
56542;DHT22;42438;53.174;6.730;2022-08-21T09:59:43;23.50;99.90
56542;DHT22;42438;53.174;6.730;2022-08-21T10:02:35;23.50;99.90
56542;DHT22;42438;53.174;6.730;2022-08-21T10:05:23;23.30;99.90
56542;DHT22;42438;53.174;6.730;2022-08-21T10:07:54;23.20;99.90
56542;DHT22;42438;53.174;6.730;2022-08-21T10:10:32;23.10;99.90
56542;DHT22;42438;53.174;6.730;2022-08-21T10:13:26;22.90;99.90
56542;DHT22;42438;53.174;6.730;2022-08-21T10:19:21;23.20;99.90
56542;DHT22;42438;53.174;6.730;2022-08-21T10:22:09;23.40;99.90
56542;DHT22;42438;53.174;6.730;2022-08-21T10:30:30;24.20;99.90
56542;DHT22;42438;53.174;6.730;2022-08-21T10:42:19;24.90;99.90
56542;DHT22;42438;53.174;6.730;2022-08-21T10:47:18;25.20;99.00
56542;DHT22;42438;53.174;6.730;2022-08-21T10:53:03;25.00;98.50
56542;DHT22;42438;53.174;6.730;2022-08-21T10:55:52;24.70;99.30
56542;DHT22;42438;53.174;6.730;2022-08-21T11:01:42;24.20;99.70
56542;DHT22;42438;53.174;6.730;2022-08-21T11:07:31;23.60;99.90
56542;DHT22;42438;53.174;6.730;2022-08-21T11:10:10;23.40;99.90
56542;DHT22;42438;53.174;6.730;2022-08-21T11:13:16;23.20;99.90
56542;DHT22;42438;53.174;6.730;2022-08-21T11:15:56;23.00;99.90
56542;DHT22;42438;53.174;6.730;2022-08-21T11:18:52;22.90;99.90
56542;DHT22;42438;53.174;6.730;2022-08-21T11:29:30;22.60;99.90
56542;DHT22;42438;53.174;6.730;2022-08-21T11:35:38;22.50;99.90
56542;DHT22;42438;53.174;6.730;2022-08-21T11:38:45;22.40;99.90
56542;DHT22;42438;53.174;6.730;2022-08-21T11:50:02;22.00;99.90
56542;DHT22;42438;53.174;6.730;2022-08-21T11:52:51;21.90;99.90
56542;DHT22;42438;53.174;6.730;2022-08-21T11:55:31;21.80;99.90
56542;DHT22;42438;53.174;6.730;2022-08-21T11:58:05;21.70;99.90
56542;DHT22;42438;53.174;6.730;2022-08-21T12:00:46;21.70;99.90
56542;DHT22;42438;53.174;6.730;2022-08-21T12:03:42;21.70;99.90
56542;DHT22;42438;53.174;6.730;2022-08-21T12:06:14;21.70;99.90
56542;DHT22;42438;53.174;6.730;2022-08-21T12:08:57;21.70;99.90
56542;DHT22;42438;53.174;6.730;2022-08-21T12:11:29;21.90;99.90
56542;DHT22;42438;53.174;6.730;2022-08-21T12:16:39;22.80;99.90
56542;DHT22;42438;53.174;6.730;2022-08-21T12:19:11;22.90;99.90
56542;DHT22;42438;53.174;6.730;2022-08-21T12:21:52;23.20;99.90
56542;DHT22;42438;53.174;6.730;2022-08-21T12:29:55;23.50;99.90
56542;DHT22;42438;53.174;6.730;2022-08-21T12:32:30;23.60;99.90
56542;DHT22;42438;53.174;6.730;2022-08-21T12:35:19;23.70;99.90
56542;DHT22;42438;53.174;6.730;2022-08-21T12:38:07;23.90;99.90
56542;DHT22;42438;53.174;6.730;2022-08-21T12:40:43;24.00;99.90
56542;DHT22;42438;53.174;6.730;2022-08-21T12:43:41;23.90;99.90
56542;DHT22;42438;53.174;6.730;2022-08-21T12:46:19;23.70;99.90
56542;DHT22;42438;53.174;6.730;2022-08-21T12:48:54;23.50;99.90
56542;DHT22;42438;53.174;6.730;2022-08-21T12:51:37;23.20;99.90
56542;DHT22;42438;53.174;6.730;2022-08-21T12:54:08;23.10;99.90
56542;DHT22;42438;53.174;6.730;2022-08-21T12:56:39;22.90;99.90
56542;DHT22;42438;53.174;6.730;2022-08-21T12:59:12;22.80;99.90
56542;DHT22;42438;53.174;6.730;2022-08-21T13:01:47;22.70;99.90
56542;DHT22;42438;53.174;6.730;2022-08-21T13:04:41;22.70;99.90
56542;DHT22;42438;53.174;6.730;2022-08-21T13:07:15;22.80;99.90
56542;DHT22;42438;53.174;6.730;2022-08-21T13:12:35;23.60;99.90
56542;DHT22;42438;53.174;6.730;2022-08-21T13:15:06;24.00;99.90
56542;DHT22;42438;53.174;6.730;2022-08-21T13:17:44;24.20;99.90
56542;DHT22;42438;53.174;6.730;2022-08-21T13:20:23;24.30;99.60
56542;DHT22;42438;53.174;6.730;2022-08-21T13:22:53;24.30;99.60
56542;DHT22;42438;53.174;6.730;2022-08-21T13:25:30;24.30;99.60
56542;DHT22;42438;53.174;6.730;2022-08-21T13:28:08;24.40;99.10
56542;DHT22;42438;53.174;6.730;2022-08-21T13:30:52;24.60;99.20
56542;DHT22;42438;53.174;6.730;2022-08-21T13:33:25;24.60;98.70
56542;DHT22;42438;53.174;6.730;2022-08-21T13:38:31;24.50;98.90
56542;DHT22;42438;53.174;6.730;2022-08-21T13:43:50;24.10;98.40
56542;DHT22;42438;53.174;6.730;2022-08-21T13:46:29;23.90;99.40
56542;DHT22;42438;53.174;6.730;2022-08-21T13:49:02;23.80;99.50
56542;DHT22;42438;53.174;6.730;2022-08-21T13:51:33;23.70;99.60
56542;DHT22;42438;53.174;6.730;2022-08-21T13:54:23;23.70;99.90
56542;DHT22;42438;53.174;6.730;2022-08-21T13:56:54;23.60;99.90
56542;DHT22;42438;53.174;6.730;2022-08-21T13:59:33;23.50;99.90
56542;DHT22;42438;53.174;6.730;2022-08-21T14:02:19;23.50;99.90
56542;DHT22;42438;53.174;6.730;2022-08-21T14:04:58;23.50;99.90
56542;DHT22;42438;53.174;6.730;2022-08-21T14:07:39;23.40;99.60
56542;DHT22;42438;53.174;6.730;2022-08-21T14:10:19;23.40;99.60
56542;DHT22;42438;53.174;6.730;2022-08-21T14:13:01;23.60;99.90
56542;DHT22;42438;53.174;6.730;2022-08-21T14:15:33;23.50;99.90
56542;DHT22;42438;53.174;6.730;2022-08-21T14:18:15;23.70;99.90
56542;DHT22;42438;53.174;6.730;2022-08-21T14:20:46;23.90;99.40
56542;DHT22;42438;53.174;6.730;2022-08-21T14:23:24;23.90;99.40
56542;DHT22;42438;53.174;6.730;2022-08-21T14:26:03;23.90;99.00
56542;DHT22;42438;53.174;6.730;2022-08-21T14:28:39;23.90;99.20
56542;DHT22;42438;53.174;6.730;2022-08-21T14:31:19;23.80;99.10
56542;DHT22;42438;53.174;6.730;2022-08-21T14:33:50;23.70;99.30
56542;DHT22;42438;53.174;6.730;2022-08-21T14:36:21;23.50;99.30
56542;DHT22;42438;53.174;6.730;2022-08-21T14:38:52;23.40;99.40
56542;DHT22;42438;53.174;6.730;2022-08-21T14:41:25;23.30;99.40
56542;DHT22;42438;53.174;6.730;2022-08-21T14:43:57;23.20;99.60
56542;DHT22;42438;53.174;6.730;2022-08-21T14:46:30;23.30;99.90
56542;DHT22;42438;53.174;6.730;2022-08-21T14:49:02;23.40;99.50
56542;DHT22;42438;53.174;6.730;2022-08-21T14:51:33;23.40;99.70
56542;DHT22;42438;53.174;6.730;2022-08-21T14:54:04;23.40;99.60
56542;DHT22;42438;53.174;6.730;2022-08-21T14:56:36;23.40;99.80
56542;DHT22;42438;53.174;6.730;2022-08-21T14:59:07;23.70;99.90
56542;DHT22;42438;53.174;6.730;2022-08-21T15:01:39;24.10;99.90
56542;DHT22;42438;53.174;6.730;2022-08-21T15:04:10;24.20;99.30
56542;DHT22;42438;53.174;6.730;2022-08-21T15:06:41;24.30;99.10
56542;DHT22;42438;53.174;6.730;2022-08-21T15:09:12;24.30;99.00
56542;DHT22;42438;53.174;6.730;2022-08-21T15:11:42;24.20;98.90
56542;DHT22;42438;53.174;6.730;2022-08-21T15:14:19;24.10;99.00
56542;DHT22;42438;53.174;6.730;2022-08-21T15:16:51;23.70;99.00
56542;DHT22;42438;53.174;6.730;2022-08-21T15:19:22;23.60;99.20
56542;DHT22;42438;53.174;6.730;2022-08-21T15:21:53;23.40;99.40
56542;DHT22;42438;53.174;6.730;2022-08-21T15:24:24;23.30;99.50
56542;DHT22;42438;53.174;6.730;2022-08-21T15:26:55;23.10;99.70
56542;DHT22;42438;53.174;6.730;2022-08-21T15:29:26;23.10;99.60
56542;DHT22;42438;53.174;6.730;2022-08-21T15:32:00;22.90;99.70
56542;DHT22;42438;53.174;6.730;2022-08-21T15:34:31;22.90;99.90
56542;DHT22;42438;53.174;6.730;2022-08-21T15:37:02;23.00;99.90
56542;DHT22;42438;53.174;6.730;2022-08-21T15:39:35;23.00;99.70
56542;DHT22;42438;53.174;6.730;2022-08-21T15:42:06;23.00;99.90
56542;DHT22;42438;53.174;6.730;2022-08-21T15:44:39;22.90;99.90
56542;DHT22;42438;53.174;6.730;2022-08-21T15:47:24;22.90;99.90
56542;DHT22;42438;53.174;6.730;2022-08-21T15:49:55;22.80;99.90
56542;DHT22;42438;53.174;6.730;2022-08-21T15:52:26;22.70;99.90
56542;DHT22;42438;53.174;6.730;2022-08-21T15:54:56;22.70;99.90
56542;DHT22;42438;53.174;6.730;2022-08-21T15:57:27;22.70;99.90
56542;DHT22;42438;53.174;6.730;2022-08-21T16:00:01;22.50;99.90
56542;DHT22;42438;53.174;6.730;2022-08-21T16:02:39;22.50;99.90
56542;DHT22;42438;53.174;6.730;2022-08-21T16:05:11;22.40;99.90
56542;DHT22;42438;53.174;6.730;2022-08-21T16:07:43;22.30;99.90
56542;DHT22;42438;53.174;6.730;2022-08-21T16:10:16;22.30;99.90
56542;DHT22;42438;53.174;6.730;2022-08-21T16:13:02;22.30;99.90
56542;DHT22;42438;53.174;6.730;2022-08-21T16:15:33;22.20;99.90
56542;DHT22;42438;53.174;6.730;2022-08-21T16:18:04;22.10;99.90
56542;DHT22;42438;53.174;6.730;2022-08-21T16:20:35;22.00;99.90
56542;DHT22;42438;53.174;6.730;2022-08-21T16:23:05;21.90;99.90
56542;DHT22;42438;53.174;6.730;2022-08-21T16:25:37;21.90;99.90
56542;DHT22;42438;53.174;6.730;2022-08-21T16:28:11;21.70;99.90
56542;DHT22;42438;53.174;6.730;2022-08-21T16:30:45;21.70;99.90
56542;DHT22;42438;53.174;6.730;2022-08-21T16:33:21;21.60;99.90
56542;DHT22;42438;53.174;6.730;2022-08-21T16:35:53;21.60;99.90
56542;DHT22;42438;53.174;6.730;2022-08-21T16:38:23;21.60;99.90
56542;DHT22;42438;53.174;6.730;2022-08-21T16:40:54;21.60;99.90
56542;DHT22;42438;53.174;6.730;2022-08-21T16:43:28;21.50;99.90
56542;DHT22;42438;53.174;6.730;2022-08-21T16:45:59;21.50;99.90
56542;DHT22;42438;53.174;6.730;2022-08-21T16:48:30;21.40;99.90
56542;DHT22;42438;53.174;6.730;2022-08-21T16:51:01;21.40;99.90
56542;DHT22;42438;53.174;6.730;2022-08-21T16:53:32;21.30;99.90
56542;DHT22;42438;53.174;6.730;2022-08-21T16:56:03;21.20;99.90
56542;DHT22;42438;53.174;6.730;2022-08-21T16:58:37;21.20;99.90
56542;DHT22;42438;53.174;6.730;2022-08-21T17:01:11;21.20;99.90
56542;DHT22;42438;53.174;6.730;2022-08-21T17:03:45;21.20;99.90
56542;DHT22;42438;53.174;6.730;2022-08-21T17:06:17;21.10;99.90
56542;DHT22;42438;53.174;6.730;2022-08-21T17:08:48;21.10;99.90
56542;DHT22;42438;53.174;6.730;2022-08-21T17:11:31;21.10;99.90
56542;DHT22;42438;53.174;6.730;2022-08-21T17:14:03;21.10;99.90
56542;DHT22;42438;53.174;6.730;2022-08-21T17:16:36;21.10;99.90
56542;DHT22;42438;53.174;6.730;2022-08-21T17:19:07;21.10;99.90
56542;DHT22;42438;53.174;6.730;2022-08-21T17:21:38;21.20;99.90
56542;DHT22;42438;53.174;6.730;2022-08-21T17:24:09;21.20;99.90
56542;DHT22;42438;53.174;6.730;2022-08-21T17:26:40;21.20;99.90
56542;DHT22;42438;53.174;6.730;2022-08-21T17:29:12;21.30;99.90
56542;DHT22;42438;53.174;6.730;2022-08-21T17:31:45;21.30;99.90
56542;DHT22;42438;53.174;6.730;2022-08-21T17:34:15;21.30;99.90